sensor_id;sensor_type;location;lat;lon;timestamp;pressure;altitude;pressure_sealevel;temperature;humidity
42067;BME280;27734;47.028;28.820;2023-03-19T00:02:28;101272.00;;;5.87;75.49
42067;BME280;27734;47.028;28.820;2023-03-19T00:05:01;101274.71;;;5.88;75.66
42067;BME280;27734;47.028;28.820;2023-03-19T00:07:32;101274.81;;;5.90;75.80
42067;BME280;27734;47.028;28.820;2023-03-19T00:10:04;101266.00;;;5.88;75.81
42067;BME280;27734;47.028;28.820;2023-03-19T00:12:36;101258.88;;;5.85;75.76
42067;BME280;27734;47.028;28.820;2023-03-19T00:15:09;101266.00;;;5.88;75.88
42067;BME280;27734;47.028;28.820;2023-03-19T00:17:43;101259.97;;;5.89;75.84
42067;BME280;27734;47.028;28.820;2023-03-19T00:20:14;101257.37;;;5.89;75.91
42067;BME280;27734;47.028;28.820;2023-03-19T00:22:46;101260.69;;;5.86;75.80
42067;BME280;27734;47.028;28.820;2023-03-19T00:25:18;101262.27;;;5.84;75.78
42067;BME280;27734;47.028;28.820;2023-03-19T00:27:49;101261.38;;;5.84;75.55
42067;BME280;27734;47.028;28.820;2023-03-19T00:30:21;101259.77;;;5.86;75.81
42067;BME280;27734;47.028;28.820;2023-03-19T00:32:53;101256.58;;;5.90;75.84
42067;BME280;27734;47.028;28.820;2023-03-19T00:35:25;101256.58;;;5.90;75.84
42067;BME280;27734;47.028;28.820;2023-03-19T00:37:56;101255.38;;;5.85;75.94
42067;BME280;27734;47.028;28.820;2023-03-19T00:40:27;101253.25;;;5.79;75.92
42067;BME280;27734;47.028;28.820;2023-03-19T00:42:59;101251.38;;;5.76;75.84
42067;BME280;27734;47.028;28.820;2023-03-19T00:45:31;101251.27;;;5.75;76.09
42067;BME280;27734;47.028;28.820;2023-03-19T00:48:02;101258.98;;;5.73;76.26
42067;BME280;27734;47.028;28.820;2023-03-19T00:50:34;101249.34;;;5.72;76.10
42067;BME280;27734;47.028;28.820;2023-03-19T00:53:05;101247.63;;;5.73;76.10
42067;BME280;27734;47.028;28.820;2023-03-19T00:55:36;101250.95;;;5.70;76.01
42067;BME280;27734;47.028;28.820;2023-03-19T00:58:08;101244.62;;;5.67;76.50
42067;BME280;27734;47.028;28.820;2023-03-19T01:00:40;101242.73;;;5.64;76.27
42067;BME280;27734;47.028;28.820;2023-03-19T01:03:12;101239.00;;;5.61;76.37
42067;BME280;27734;47.028;28.820;2023-03-19T01:05:43;101239.81;;;5.60;76.46
42067;BME280;27734;47.028;28.820;2023-03-19T01:08:17;101245.02;;;5.60;75.81
42067;BME280;27734;47.028;28.820;2023-03-19T01:10:49;101245.70;;;5.57;76.64
42067;BME280;27734;47.028;28.820;2023-03-19T01:13:20;101242.11;;;5.55;76.96
42067;BME280;27734;47.028;28.820;2023-03-19T01:15:52;101237.69;;;5.54;76.63
42067;BME280;27734;47.028;28.820;2023-03-19T01:18:24;101231.70;;;5.55;76.43
42067;BME280;27734;47.028;28.820;2023-03-19T01:20:56;101224.88;;;5.57;76.14
42067;BME280;27734;47.028;28.820;2023-03-19T01:23:28;101233.00;;;5.62;76.52
42067;BME280;27734;47.028;28.820;2023-03-19T01:26:00;101231.59;;;5.67;76.25
42067;BME280;27734;47.028;28.820;2023-03-19T01:28:31;101234.30;;;5.68;76.54
42067;BME280;27734;47.028;28.820;2023-03-19T01:31:07;101230.81;;;5.68;76.37
42067;BME280;27734;47.028;28.820;2023-03-19T01:33:57;101224.81;;;5.69;76.52
42067;BME280;27734;47.028;28.820;2023-03-19T01:36:54;101226.80;;;5.73;76.55
42067;BME280;27734;47.028;28.820;2023-03-19T01:39:33;101220.91;;;5.75;76.67
42067;BME280;27734;47.028;28.820;2023-03-19T01:42:09;101222.42;;;5.72;76.48
42067;BME280;27734;47.028;28.820;2023-03-19T01:45:32;101227.93;;;5.76;75.89
42067;BME280;27734;47.028;28.820;2023-03-19T01:48:38;101233.92;;;5.75;76.11
42067;BME280;27734;47.028;28.820;2023-03-19T01:51:17;101231.33;;;5.75;76.14
42067;BME280;27734;47.028;28.820;2023-03-19T01:53:59;101237.42;;;5.76;76.25
42067;BME280;27734;47.028;28.820;2023-03-19T01:56:40;101231.02;;;5.71;76.36
42067;BME280;27734;47.028;28.820;2023-03-19T01:59:37;101228.31;;;5.69;76.13
42067;BME280;27734;47.028;28.820;2023-03-19T02:02:30;101216.18;;;5.70;76.07
42067;BME280;27734;47.028;28.820;2023-03-19T02:05:08;101225.12;;;5.73;76.50
42067;BME280;27734;47.028;28.820;2023-03-19T02:07:42;101218.89;;;5.71;75.84
42067;BME280;27734;47.028;28.820;2023-03-19T02:10:17;101223.99;;;5.70;76.16
42067;BME280;27734;47.028;28.820;2023-03-19T02:12:49;101219.70;;;5.70;76.54
42067;BME280;27734;47.028;28.820;2023-03-19T02:15:21;101219.70;;;5.70;75.98
42067;BME280;27734;47.028;28.820;2023-03-19T02:17:52;101222.52;;;5.73;76.37
42067;BME280;27734;47.028;28.820;2023-03-19T02:20:28;101227.93;;;5.76;75.94
42067;BME280;27734;47.028;28.820;2023-03-19T02:23:05;101216.89;;;5.81;76.27
42067;BME280;27734;47.028;28.820;2023-03-19T02:25:49;101221.42;;;5.83;76.10
42067;BME280;27734;47.028;28.820;2023-03-19T02:28:21;101213.61;;;5.83;75.98
42067;BME280;27734;47.028;28.820;2023-03-19T02:30:54;101224.61;;;5.79;76.25
42067;BME280;27734;47.028;28.820;2023-03-19T02:33:25;101220.02;;;5.75;75.82
42067;BME280;27734;47.028;28.820;2023-03-19T02:35:56;101213.68;;;5.71;76.16
42067;BME280;27734;47.028;28.820;2023-03-19T02:38:31;101215.29;;;5.69;75.95
42067;BME280;27734;47.028;28.820;2023-03-19T02:41:05;101216.91;;;5.67;75.66
42067;BME280;27734;47.028;28.820;2023-03-19T02:43:40;101217.69;;;5.66;75.79
42067;BME280;27734;47.028;28.820;2023-03-19T02:46:13;101215.08;;;5.66;76.15
42067;BME280;27734;47.028;28.820;2023-03-19T02:48:44;101215.19;;;5.68;75.96
42067;BME280;27734;47.028;28.820;2023-03-19T02:51:18;101216.80;;;5.66;75.86
42067;BME280;27734;47.028;28.820;2023-03-19T02:53:49;101207.27;;;5.66;76.07
42067;BME280;27734;47.028;28.820;2023-03-19T02:56:22;101211.59;;;5.66;76.06
42067;BME280;27734;47.028;28.820;2023-03-19T02:58:53;101218.48;;;5.65;75.99
42067;BME280;27734;47.028;28.820;2023-03-19T03:01:25;101218.48;;;5.65;76.10
42067;BME280;27734;47.028;28.820;2023-03-19T03:03:56;101217.48;;;5.63;76.15
42067;BME280;27734;47.028;28.820;2023-03-19T03:06:28;101224.50;;;5.64;76.31
42067;BME280;27734;47.028;28.820;2023-03-19T03:08:59;101223.79;;;5.67;76.06
42067;BME280;27734;47.028;28.820;2023-03-19T03:11:30;101221.91;;;5.64;76.27
42067;BME280;27734;47.028;28.820;2023-03-19T03:14:01;101231.29;;;5.62;76.26
42067;BME280;27734;47.028;28.820;2023-03-19T03:16:33;101223.17;;;5.57;75.89
42067;BME280;27734;47.028;28.820;2023-03-19T03:19:05;101227.38;;;5.55;76.23
42067;BME280;27734;47.028;28.820;2023-03-19T03:21:36;101235.09;;;5.54;76.21
42067;BME280;27734;47.028;28.820;2023-03-19T03:24:08;101229.77;;;5.52;75.97
42067;BME280;27734;47.028;28.820;2023-03-19T03:26:39;101229.67;;;5.51;76.07
42067;BME280;27734;47.028;28.820;2023-03-19T03:29:11;101228.27;;;5.56;76.23
42067;BME280;27734;47.028;28.820;2023-03-19T03:31:44;101227.69;;;5.60;76.37
42067;BME280;27734;47.028;28.820;2023-03-19T03:34:16;101226.91;;;5.61;76.27
42067;BME280;27734;47.028;28.820;2023-03-19T03:36:48;101238.89;;;5.59;77.01
42067;BME280;27734;47.028;28.820;2023-03-19T03:39:19;101231.91;;;5.58;76.34
42067;BME280;27734;47.028;28.820;2023-03-19T03:41:51;101236.08;;;5.56;76.32
42067;BME280;27734;47.028;28.820;2023-03-19T03:44:23;101233.27;;;5.53;76.14
42067;BME280;27734;47.028;28.820;2023-03-19T03:46:54;101238.48;;;5.53;76.26
42067;BME280;27734;47.028;28.820;2023-03-19T03:49:25;101233.27;;;5.53;76.68
42067;BME280;27734;47.028;28.820;2023-03-19T03:51:56;101232.27;;;5.51;76.32
42067;BME280;27734;47.028;28.820;2023-03-19T03:54:28;101229.57;;;5.49;76.33
42067;BME280;27734;47.028;28.820;2023-03-19T03:56:59;101230.46;;;5.50;76.78
42067;BME280;27734;47.028;28.820;2023-03-19T03:59:31;101229.67;;;5.51;76.96
42067;BME280;27734;47.028;28.820;2023-03-19T04:02:02;101220.05;;;5.50;77.02
42067;BME280;27734;47.028;28.820;2023-03-19T04:04:35;101221.45;;;5.45;77.20
42067;BME280;27734;47.028;28.820;2023-03-19T04:07:07;101224.73;;;5.42;77.17
42067;BME280;27734;47.028;28.820;2023-03-19T04:09:48;101227.23;;;5.40;77.23
42067;BME280;27734;47.028;28.820;2023-03-19T04:12:20;101228.05;;;5.39;77.30
42067;BME280;27734;47.028;28.820;2023-03-19T04:14:51;101205.58;;;5.28;77.35
42067;BME280;27734;47.028;28.820;2023-03-19T04:17:23;101226.34;;;5.40;77.20
42067;BME280;27734;47.028;28.820;2023-03-19T04:19:55;101233.36;;;5.41;77.40
42067;BME280;27734;47.028;28.820;2023-03-19T04:22:29;101236.85;;;5.42;77.59
42067;BME280;27734;47.028;28.820;2023-03-19T04:25:05;101232.54;;;5.42;77.74
42067;BME280;27734;47.028;28.820;2023-03-19T04:27:37;101229.94;;;5.42;78.09
42067;BME280;27734;47.028;28.820;2023-03-19T04:30:12;101235.96;;;5.41;77.23
42067;BME280;27734;47.028;28.820;2023-03-19T04:32:42;101234.15;;;5.40;79.07
42067;BME280;27734;47.028;28.820;2023-03-19T04:35:15;101231.34;;;5.37;78.69
42067;BME280;27734;47.028;28.820;2023-03-19T04:37:48;101238.25;;;5.36;77.73
42067;BME280;27734;47.028;28.820;2023-03-19T04:40:20;101239.93;;;5.36;78.49
42067;BME280;27734;47.028;28.820;2023-03-19T04:42:51;101245.13;;;5.36;77.99
42067;BME280;27734;47.028;28.820;2023-03-19T04:45:34;101239.93;;;5.36;78.04
42067;BME280;27734;47.028;28.820;2023-03-19T04:48:06;101240.85;;;5.36;78.22
42067;BME280;27734;47.028;28.820;2023-03-19T04:50:39;101237.53;;;5.39;78.13
42067;BME280;27734;47.028;28.820;2023-03-19T04:53:13;101246.38;;;5.41;78.06
42067;BME280;27734;47.028;28.820;2023-03-19T04:55:46;101237.06;;;5.45;77.81
42067;BME280;27734;47.028;28.820;2023-03-19T04:58:21;101237.17;;;5.46;78.23
42067;BME280;27734;47.028;28.820;2023-03-19T05:01:08;101239.88;;;5.48;78.40
42067;BME280;27734;47.028;28.820;2023-03-19T05:04:04;101247.69;;;5.48;78.18
42067;BME280;27734;47.028;28.820;2023-03-19T05:06:37;101246.90;;;5.49;78.37
42067;BME280;27734;47.028;28.820;2023-03-19T05:09:09;101241.69;;;5.49;78.68
42067;BME280;27734;47.028;28.820;2023-03-19T05:11:40;101240.87;;;5.50;78.79
42067;BME280;27734;47.028;28.820;2023-03-19T05:14:16;101246.28;;;5.53;78.35
42067;BME280;27734;47.028;28.820;2023-03-19T05:17:19;101243.69;;;5.53;78.46
42067;BME280;27734;47.028;28.820;2023-03-19T05:20:17;101243.00;;;5.55;78.71
42067;BME280;27734;47.028;28.820;2023-03-19T05:22:55;101246.81;;;5.61;78.48
42067;BME280;27734;47.028;28.820;2023-03-19T05:25:35;101247.22;;;5.67;78.91
42067;BME280;27734;47.028;28.820;2023-03-19T05:28:08;101239.72;;;5.71;78.91
42067;BME280;27734;47.028;28.820;2023-03-19T05:30:40;101240.55;;;5.70;78.34
42067;BME280;27734;47.028;28.820;2023-03-19T05:33:22;101244.14;;;5.72;79.00
42067;BME280;27734;47.028;28.820;2023-03-19T05:35:54;101241.33;;;5.69;78.57
42067;BME280;27734;47.028;28.820;2023-03-19T05:38:31;101245.75;;;5.70;78.99
42067;BME280;27734;47.028;28.820;2023-03-19T05:41:07;101252.64;;;5.70;79.33
42067;BME280;27734;47.028;28.820;2023-03-19T05:43:46;101251.64;;;5.68;78.89
42067;BME280;27734;47.028;28.820;2023-03-19T05:46:24;101250.75;;;5.67;78.80
42067;BME280;27734;47.028;28.820;2023-03-19T05:48:56;101253.56;;;5.70;78.84
42067;BME280;27734;47.028;28.820;2023-03-19T05:51:27;101252.16;;;5.75;78.70
42067;BME280;27734;47.028;28.820;2023-03-19T05:53:58;101260.28;;;5.80;78.88
42067;BME280;27734;47.028;28.820;2023-03-19T05:56:39;101256.17;;;5.84;79.07
42067;BME280;27734;47.028;28.820;2023-03-19T05:59:31;101261.58;;;5.87;78.59
42067;BME280;27734;47.028;28.820;2023-03-19T06:02:20;101268.61;;;5.88;79.22
42067;BME280;27734;47.028;28.820;2023-03-19T06:04:53;101263.40;;;5.88;79.25
42067;BME280;27734;47.028;28.820;2023-03-19T06:07:27;101271.22;;;5.88;78.87
42067;BME280;27734;47.028;28.820;2023-03-19T06:09:59;101271.42;;;5.91;79.01
42067;BME280;27734;47.028;28.820;2023-03-19T06:12:30;101265.59;;;5.95;78.82
42067;BME280;27734;47.028;28.820;2023-03-19T06:15:27;101266.52;;;5.96;78.84
42067;BME280;27734;47.028;28.820;2023-03-19T06:17:59;101269.26;;;5.97;79.18
42067;BME280;27734;47.028;28.820;2023-03-19T06:20:30;101269.26;;;5.97;79.26
42067;BME280;27734;47.028;28.820;2023-03-19T06:23:02;101264.05;;;5.97;78.90
42067;BME280;27734;47.028;28.820;2023-03-19T06:25:33;101260.92;;;6.03;78.94
42067;BME280;27734;47.028;28.820;2023-03-19T06:28:05;101261.33;;;6.09;79.10
42067;BME280;27734;47.028;28.820;2023-03-19T06:30:41;101267.67;;;6.13;79.13
42067;BME280;27734;47.028;28.820;2023-03-19T06:33:39;101267.77;;;6.14;79.09
42067;BME280;27734;47.028;28.820;2023-03-19T06:36:11;101266.25;;;6.18;79.02
42067;BME280;27734;47.028;28.820;2023-03-19T06:38:42;101267.55;;;6.24;79.13
42067;BME280;27734;47.028;28.820;2023-03-19T06:41:14;101266.27;;;6.31;79.02
42067;BME280;27734;47.028;28.820;2023-03-19T06:43:46;101259.64;;;6.36;78.85
42067;BME280;27734;47.028;28.820;2023-03-19T06:46:17;101265.05;;;6.39;78.86
42067;BME280;27734;47.028;28.820;2023-03-19T06:48:48;101266.05;;;6.41;79.03
42067;BME280;27734;47.028;28.820;2023-03-19T06:51:20;101264.63;;;6.46;78.91
42067;BME280;27734;47.028;28.820;2023-03-19T06:53:52;101264.92;;;6.51;79.13
42067;BME280;27734;47.028;28.820;2023-03-19T06:56:23;101262.52;;;6.54;78.97
42067;BME280;27734;47.028;28.820;2023-03-19T06:58:55;101261.91;;;6.58;78.92
42067;BME280;27734;47.028;28.820;2023-03-19T07:01:26;101250.59;;;6.58;78.75
42067;BME280;27734;47.028;28.820;2023-03-19T07:03:58;101259.50;;;6.61;78.73
42067;BME280;27734;47.028;28.820;2023-03-19T07:06:29;101256.89;;;6.61;78.80
42067;BME280;27734;47.028;28.820;2023-03-19T07:09:02;101265.41;;;6.59;78.72
42067;BME280;27734;47.028;28.820;2023-03-19T07:11:34;101272.45;;;6.60;78.71
42067;BME280;27734;47.028;28.820;2023-03-19T07:14:05;101270.23;;;6.66;78.73
42067;BME280;27734;47.028;28.820;2023-03-19T07:16:36;101270.52;;;6.71;78.81
42067;BME280;27734;47.028;28.820;2023-03-19T07:19:08;101262.00;;;6.73;78.73
42067;BME280;27734;47.028;28.820;2023-03-19T07:21:40;101265.00;;;6.79;78.57
42067;BME280;27734;47.028;28.820;2023-03-19T07:24:11;101264.36;;;6.83;78.78
42067;BME280;27734;47.028;28.820;2023-03-19T07:26:43;101262.68;;;6.84;78.69
42067;BME280;27734;47.028;28.820;2023-03-19T07:29:15;101261.25;;;6.89;78.86
42067;BME280;27734;47.028;28.820;2023-03-19T07:31:46;101267.84;;;6.97;78.82
42067;BME280;27734;47.028;28.820;2023-03-19T07:34:18;101264.82;;;7.05;78.74
42067;BME280;27734;47.028;28.820;2023-03-19T07:36:49;101267.72;;;7.09;78.58
42067;BME280;27734;47.028;28.820;2023-03-19T07:39:22;101261.06;;;7.14;78.43
42067;BME280;27734;47.028;28.820;2023-03-19T07:41:53;101267.36;;;7.18;78.32
42067;BME280;27734;47.028;28.820;2023-03-19T07:44:26;101259.53;;;7.18;78.33
42067;BME280;27734;47.028;28.820;2023-03-19T07:46:58;101263.06;;;7.18;78.06
42067;BME280;27734;47.028;28.820;2023-03-19T07:49:29;101267.45;;;7.19;77.75
42067;BME280;27734;47.028;28.820;2023-03-19T07:52:01;101268.70;;;7.11;77.28
42067;BME280;27734;47.028;28.820;2023-03-19T07:54:32;101274.43;;;7.06;77.28
42067;BME280;27734;47.028;28.820;2023-03-19T07:57:04;101265.23;;;6.97;77.36
42067;BME280;27734;47.028;28.820;2023-03-19T07:59:35;101270.16;;;6.93;77.34
42067;BME280;27734;47.028;28.820;2023-03-19T08:02:07;101264.36;;;6.83;77.28
42067;BME280;27734;47.028;28.820;2023-03-19T08:04:40;101266.28;;;6.86;77.59
42067;BME280;27734;47.028;28.820;2023-03-19T08:07:12;101263.22;;;6.93;78.06
42067;BME280;27734;47.028;28.820;2023-03-19T08:09:43;101266.22;;;6.99;77.39
42067;BME280;27734;47.028;28.820;2023-03-19T08:12:15;101269.02;;;7.02;77.37
42067;BME280;27734;47.028;28.820;2023-03-19T08:14:46;101271.31;;;7.11;77.47
42067;BME280;27734;47.028;28.820;2023-03-19T08:17:18;101267.91;;;7.12;77.64
42067;BME280;27734;47.028;28.820;2023-03-19T08:19:50;101268.89;;;7.14;77.07
42067;BME280;27734;47.028;28.820;2023-03-19T08:22:21;101267.17;;;7.15;77.26
42067;BME280;27734;47.028;28.820;2023-03-19T08:24:52;101262.05;;;7.16;77.16
42067;BME280;27734;47.028;28.820;2023-03-19T08:27:23;101270.52;;;7.12;76.86
42067;BME280;27734;47.028;28.820;2023-03-19T08:29:55;101265.11;;;7.09;76.72
42067;BME280;27734;47.028;28.820;2023-03-19T08:32:27;101274.81;;;7.12;76.90
42067;BME280;27734;47.028;28.820;2023-03-19T08:34:59;101273.31;;;7.15;76.96
42067;BME280;27734;47.028;28.820;2023-03-19T08:37:30;101269.17;;;7.19;77.19
42067;BME280;27734;47.028;28.820;2023-03-19T08:40:02;101274.49;;;7.20;77.31
42067;BME280;27734;47.028;28.820;2023-03-19T08:42:33;101278.09;;;7.23;77.26
42067;BME280;27734;47.028;28.820;2023-03-19T08:45:07;101276.22;;;7.20;76.67
42067;BME280;27734;47.028;28.820;2023-03-19T08:47:38;101271.50;;;7.14;77.18
42067;BME280;27734;47.028;28.820;2023-03-19T08:50:11;101271.13;;;7.08;76.53
42067;BME280;27734;47.028;28.820;2023-03-19T08:52:42;101270.93;;;7.05;76.56
42067;BME280;27734;47.028;28.820;2023-03-19T08:55:14;101263.98;;;7.06;77.09
42067;BME280;27734;47.028;28.820;2023-03-19T08:57:46;101267.52;;;7.06;76.91
42067;BME280;27734;47.028;28.820;2023-03-19T09:00:18;101264.56;;;7.15;76.99
42067;BME280;27734;47.028;28.820;2023-03-19T09:02:49;101259.20;;;7.27;77.22
42067;BME280;27734;47.028;28.820;2023-03-19T09:05:21;101261.73;;;7.40;77.06
42067;BME280;27734;47.028;28.820;2023-03-19T09:07:53;101266.81;;;7.52;77.34
42067;BME280;27734;47.028;28.820;2023-03-19T09:10:24;101259.71;;;7.64;77.03
42067;BME280;27734;47.028;28.820;2023-03-19T09:12:55;101255.03;;;7.73;76.66
42067;BME280;27734;47.028;28.820;2023-03-19T09:15:27;101258.81;;;7.79;76.97
42067;BME280;27734;47.028;28.820;2023-03-19T09:17:58;101255.58;;;7.83;76.52
42067;BME280;27734;47.028;28.820;2023-03-19T09:20:30;101259.35;;;7.88;76.31
42067;BME280;27734;47.028;28.820;2023-03-19T09:23:01;101255.85;;;7.87;76.53
42067;BME280;27734;47.028;28.820;2023-03-19T09:25:33;101252.34;;;7.87;75.63
42067;BME280;27734;47.028;28.820;2023-03-19T09:28:04;101254.78;;;7.84;75.95
42067;BME280;27734;47.028;28.820;2023-03-19T09:30:35;101258.28;;;7.84;75.84
42067;BME280;27734;47.028;28.820;2023-03-19T09:33:07;101254.42;;;7.78;75.68
42067;BME280;27734;47.028;28.820;2023-03-19T09:35:39;101253.04;;;7.69;75.98
42067;BME280;27734;47.028;28.820;2023-03-19T09:38:10;101241.88;;;7.72;75.90
42067;BME280;27734;47.028;28.820;2023-03-19T09:40:44;101243.70;;;7.73;75.65
42067;BME280;27734;47.028;28.820;2023-03-19T09:43:32;101232.32;;;7.72;75.74
42067;BME280;27734;47.028;28.820;2023-03-19T09:46:12;101235.03;;;7.74;75.22
42067;BME280;27734;47.028;28.820;2023-03-19T09:48:48;101231.43;;;7.72;75.27
42067;BME280;27734;47.028;28.820;2023-03-19T09:51:24;101231.43;;;7.72;75.36
42067;BME280;27734;47.028;28.820;2023-03-19T09:54:01;101233.42;;;7.76;75.01
42067;BME280;27734;47.028;28.820;2023-03-19T09:56:34;101224.94;;;7.80;75.20
42067;BME280;27734;47.028;28.820;2023-03-19T09:59:06;101223.52;;;7.85;75.30
42067;BME280;27734;47.028;28.820;2023-03-19T10:01:40;101219.80;;;7.97;75.06
42067;BME280;27734;47.028;28.820;2023-03-19T10:04:39;101216.70;;;8.04;75.31
42067;BME280;27734;47.028;28.820;2023-03-19T10:07:26;101216.63;;;8.02;74.58
42067;BME280;27734;47.028;28.820;2023-03-19T10:10:12;101210.41;;;8.00;74.92
42067;BME280;27734;47.028;28.820;2023-03-19T10:12:58;101206.08;;;8.01;74.62
42067;BME280;27734;47.028;28.820;2023-03-19T10:15:32;101211.12;;;7.98;74.87
42067;BME280;27734;47.028;28.820;2023-03-19T10:18:06;101205.36;;;8.03;73.89
42067;BME280;27734;47.028;28.820;2023-03-19T10:20:48;101204.83;;;8.09;74.53
42067;BME280;27734;47.028;28.820;2023-03-19T10:23:40;101200.22;;;8.05;74.13
42067;BME280;27734;47.028;28.820;2023-03-19T10:26:14;101196.63;;;8.03;74.07
42067;BME280;27734;47.028;28.820;2023-03-19T10:28:54;101192.13;;;8.00;74.63
42067;BME280;27734;47.028;28.820;2023-03-19T10:31:29;101184.19;;;7.99;74.54
42067;BME280;27734;47.028;28.820;2023-03-19T10:34:16;101191.14;;;7.98;74.54
42067;BME280;27734;47.028;28.820;2023-03-19T10:36:58;101180.42;;;7.94;73.66
42067;BME280;27734;47.028;28.820;2023-03-19T10:39:32;101185.48;;;7.90;73.95
42067;BME280;27734;47.028;28.820;2023-03-19T10:42:17;101181.62;;;7.84;73.84
42067;BME280;27734;47.028;28.820;2023-03-19T10:44:52;101171.97;;;7.83;73.87
42067;BME280;27734;47.028;28.820;2023-03-19T10:47:27;101166.56;;;7.80;74.22
42067;BME280;27734;47.028;28.820;2023-03-19T10:49:58;101169.09;;;7.78;73.62
42067;BME280;27734;47.028;28.820;2023-03-19T10:52:32;101172.50;;;7.77;73.56
42067;BME280;27734;47.028;28.820;2023-03-19T10:55:11;101163.77;;;7.77;73.88
42067;BME280;27734;47.028;28.820;2023-03-19T10:57:44;101158.81;;;7.81;74.00
42067;BME280;27734;47.028;28.820;2023-03-19T11:00:34;101160.45;;;7.79;73.35
42067;BME280;27734;47.028;28.820;2023-03-19T11:03:28;101158.73;;;7.80;73.59
42067;BME280;27734;47.028;28.820;2023-03-19T11:06:17;101158.99;;;7.84;73.81
42067;BME280;27734;47.028;28.820;2023-03-19T11:08:55;101156.91;;;7.94;73.57
42067;BME280;27734;47.028;28.820;2023-03-19T11:11:35;101161.56;;;7.99;73.30
42067;BME280;27734;47.028;28.820;2023-03-19T11:14:16;101164.34;;;8.02;73.04
42067;BME280;27734;47.028;28.820;2023-03-19T11:16:49;101159.87;;;8.00;72.77
42067;BME280;27734;47.028;28.820;2023-03-19T11:19:23;101159.87;;;8.00;73.52
42067;BME280;27734;47.028;28.820;2023-03-19T11:22:08;101145.25;;;8.03;72.82
42067;BME280;27734;47.028;28.820;2023-03-19T11:24:41;101152.28;;;8.04;73.18
42067;BME280;27734;47.028;28.820;2023-03-19T11:27:18;101150.47;;;8.03;73.06
42067;BME280;27734;47.028;28.820;2023-03-19T11:29:57;101153.80;;;8.01;73.04
42067;BME280;27734;47.028;28.820;2023-03-19T11:33:01;101146.80;;;8.00;73.01
42067;BME280;27734;47.028;28.820;2023-03-19T11:35:38;101148.75;;;8.04;73.02
42067;BME280;27734;47.028;28.820;2023-03-19T11:38:15;101145.79;;;7.98;72.44
42067;BME280;27734;47.028;28.820;2023-03-19T11:40:52;101143.92;;;7.95;72.06
42067;BME280;27734;47.028;28.820;2023-03-19T11:43:42;101145.62;;;7.95;72.62
42067;BME280;27734;47.028;28.820;2023-03-19T11:46:22;101137.77;;;7.95;72.53
42067;BME280;27734;47.028;28.820;2023-03-19T11:49:40;101129.22;;;7.97;72.72
42067;BME280;27734;47.028;28.820;2023-03-19T11:52:19;101131.12;;;8.00;72.77
42067;BME280;27734;47.028;28.820;2023-03-19T11:55:03;101143.00;;;7.95;71.94
42067;BME280;27734;47.028;28.820;2023-03-19T11:58:11;101138.52;;;7.92;71.71
42067;BME280;27734;47.028;28.820;2023-03-19T12:00:49;101138.98;;;7.85;71.96
42067;BME280;27734;47.028;28.820;2023-03-19T12:04:05;101131.97;;;7.84;72.01
42067;BME280;27734;47.028;28.820;2023-03-19T12:06:50;101130.25;;;7.84;72.34
42067;BME280;27734;47.028;28.820;2023-03-19T12:09:31;101118.08;;;7.85;71.75
42067;BME280;27734;47.028;28.820;2023-03-19T12:12:15;101130.16;;;7.83;72.39
42067;BME280;27734;47.028;28.820;2023-03-19T12:14:58;101127.38;;;7.80;71.73
42067;BME280;27734;47.028;28.820;2023-03-19T12:17:49;101124.59;;;7.77;72.30
42067;BME280;27734;47.028;28.820;2023-03-19T12:20:36;101115.28;;;7.82;71.61
42067;BME280;27734;47.028;28.820;2023-03-19T12:23:29;101119.17;;;7.88;71.97
42067;BME280;27734;47.028;28.820;2023-03-19T12:26:04;101111.73;;;7.96;71.77
42067;BME280;27734;47.028;28.820;2023-03-19T12:28:41;101108.91;;;8.08;71.98
42067;BME280;27734;47.028;28.820;2023-03-19T12:31:30;101113.09;;;8.21;72.06
42067;BME280;27734;47.028;28.820;2023-03-19T12:34:15;101109.38;;;8.32;72.19
42067;BME280;27734;47.028;28.820;2023-03-19T12:36:53;101108.16;;;8.42;71.97
42067;BME280;27734;47.028;28.820;2023-03-19T12:39:30;101104.17;;;8.49;72.12
42067;BME280;27734;47.028;28.820;2023-03-19T12:42:04;101103.92;;;8.44;69.46
42067;BME280;27734;47.028;28.820;2023-03-19T12:44:40;101097.27;;;8.34;70.47
42067;BME280;27734;47.028;28.820;2023-03-19T12:47:16;101098.50;;;8.24;70.79
42067;BME280;27734;47.028;28.820;2023-03-19T12:49:52;101087.87;;;8.21;70.41
42067;BME280;27734;47.028;28.820;2023-03-19T12:52:27;101094.71;;;8.19;71.08
42067;BME280;27734;47.028;28.820;2023-03-19T12:55:05;101086.14;;;8.22;70.73
42067;BME280;27734;47.028;28.820;2023-03-19T12:57:47;101082.14;;;8.28;71.28
42067;BME280;27734;47.028;28.820;2023-03-19T13:00:25;101084.92;;;8.32;71.20
42067;BME280;27734;47.028;28.820;2023-03-19T13:03:02;101078.89;;;8.33;70.45
42067;BME280;27734;47.028;28.820;2023-03-19T13:05:40;101077.91;;;8.31;70.35
42067;BME280;27734;47.028;28.820;2023-03-19T13:08:16;101077.91;;;8.31;70.48
42067;BME280;27734;47.028;28.820;2023-03-19T13:10:49;101074.46;;;8.32;70.90
42067;BME280;27734;47.028;28.820;2023-03-19T13:13:30;101073.66;;;8.33;70.60
42067;BME280;27734;47.028;28.820;2023-03-19T13:16:12;101065.09;;;8.35;70.50
42067;BME280;27734;47.028;28.820;2023-03-19T13:18:53;101067.11;;;8.41;70.57
42067;BME280;27734;47.028;28.820;2023-03-19T13:21:31;101067.31;;;8.44;70.53
42067;BME280;27734;47.028;28.820;2023-03-19T13:24:11;101076.69;;;8.40;70.33
42067;BME280;27734;47.028;28.820;2023-03-19T13:26:46;101068.03;;;8.41;70.36
42067;BME280;27734;47.028;28.820;2023-03-19T13:29:21;101066.42;;;8.43;70.44
42067;BME280;27734;47.028;28.820;2023-03-19T13:31:58;101065.25;;;8.38;70.25
42067;BME280;27734;47.028;28.820;2023-03-19T13:34:33;101055.52;;;8.36;70.39
42067;BME280;27734;47.028;28.820;2023-03-19T13:37:10;101048.48;;;8.35;70.20